Time;durP1;ratioP1;P1;durP2;ratioP2;P2;SDS_P1;SDS_P2;PMS_P1;PMS_P2;Temp;Humidity;BMP_temperature;BMP_pressure;BME280_temperature;BME280_humidity;BME280_pressure;Samples;Min_cycle;Max_cycle;Signal;HPM_P1;HPM_P2
2022/05/24 00:00:43;;;;;;;22.23;18.55;;;;;;;16.01;81.91;98889.75;5073973;28;20060;-80
2022/05/24 00:03:13;;;;;;;25.98;20.45;;;;;;;16.10;81.84;98881.78;5053874;28;20057;-80
2022/05/24 00:05:41;;;;;;;27.17;22.23;;;;;;;16.11;82.03;98877.81;5054315;28;20528;-80
2022/05/24 00:08:10;;;;;;;25.10;20.33;;;;;;;16.18;82.78;98879.84;5054251;28;20061;-80
2022/05/24 00:10:38;;;;;;;25.52;20.95;;;;;;;16.23;82.91;98882.28;5054244;28;20049;-81
2022/05/24 00:13:05;;;;;;;23.27;18.50;;;;;;;16.27;81.15;98880.28;5053722;28;20064;-81
2022/05/24 00:15:34;;;;;;;23.38;20.90;;;;;;;16.26;80.59;98881.50;5054451;28;20417;-80
2022/05/24 00:18:05;;;;;;;23.75;20.13;;;;;;;16.27;81.35;98890.75;5053185;28;20057;-80
2022/05/24 00:20:35;;;;;;;24.55;20.73;;;;;;;16.29;81.16;98889.13;5053564;28;20520;-80
2022/05/24 00:23:03;;;;;;;21.88;19.50;;;;;;;16.30;81.94;98887.97;5053096;28;20068;-80
2022/05/24 00:25:37;;;;;;;20.55;17.92;;;;;;;16.27;81.67;98891.53;5053134;28;20060;-80
2022/05/24 00:28:06;;;;;;;21.23;18.92;;;;;;;16.32;82.23;98890.38;5053456;28;20057;-80
2022/05/24 00:30:35;;;;;;;19.40;17.38;;;;;;;16.34;81.32;98894.41;5053752;28;20057;-80
2022/05/24 00:33:05;;;;;;;20.48;18.25;;;;;;;16.18;80.00;98889.06;5053300;28;20056;-80
2022/05/24 00:35:33;;;;;;;17.13;15.23;;;;;;;16.24;80.09;98897.94;5053576;28;20063;-80
2022/05/24 00:38:01;;;;;;;18.85;16.40;;;;;;;16.24;78.97;98898.75;5053247;28;20053;-80
2022/05/24 00:40:39;;;;;;;18.40;14.55;;;;;;;15.98;79.02;98898.94;5054606;28;20056;-80
2022/05/24 00:43:14;;;;;;;15.88;14.00;;;;;;;15.93;78.74;98896.53;5053938;28;20508;-80
2022/05/24 00:45:47;;;;;;;15.13;12.75;;;;;;;15.89;79.42;98892.88;5059254;28;20057;-80
2022/05/24 00:48:23;;;;;;;14.48;12.43;;;;;;;15.97;80.56;98900.16;5058962;28;20064;-80
2022/05/24 00:50:52;;;;;;;13.00;11.65;;;;;;;15.93;79.63;98888.09;5053358;28;20057;-79
2022/05/24 00:53:26;;;;;;;14.45;12.13;;;;;;;15.94;79.05;98878.50;5052954;28;20061;-80
2022/05/24 00:56:00;;;;;;;12.75;10.90;;;;;;;15.88;79.85;98880.06;5052331;28;20535;-80
2022/05/24 00:58:36;;;;;;;12.02;10.38;;;;;;;15.80;80.01;98874.34;5052810;28;20049;-80
2022/05/24 01:01:16;;;;;;;12.35;10.57;;;;;;;15.94;80.53;98859.63;5060208;28;20053;-80
2022/05/24 01:03:43;;;;;;;15.30;11.50;;;;;;;15.93;80.62;98872.03;5072682;28;20405;-79
2022/05/24 01:06:11;;;;;;;11.32;10.13;;;;;;;15.95;80.18;98864.03;5073053;28;20049;-79
2022/05/24 01:08:40;;;;;;;10.43;9.32;;;;;;;16.01;80.24;98861.69;5072744;28;20060;-79
2022/05/24 01:11:10;;;;;;;11.48;9.63;;;;;;;15.98;78.88;98859.63;5073071;28;20057;-79
2022/05/24 01:13:38;;;;;;;12.35;9.70;;;;;;;15.99;79.16;98864.06;5072518;28;20064;-79
2022/05/24 01:16:07;;;;;;;10.57;9.38;;;;;;;16.00;79.30;98863.69;5072582;28;20071;-81
2022/05/24 01:18:35;;;;;;;10.60;9.50;;;;;;;16.07;79.42;98864.94;5072712;28;20056;-79
2022/05/24 01:21:08;;;;;;;10.50;9.23;;;;;;;16.08;80.45;98856.09;5072480;28;20483;-79
2022/05/24 01:23:47;;;;;;;12.15;10.00;;;;;;;16.12;79.98;98862.53;5072545;28;20072;-79
2022/05/24 01:26:21;;;;;;;11.23;10.10;;;;;;;16.17;79.36;98859.38;5072384;28;20057;-81
2022/05/24 01:28:54;;;;;;;10.68;9.20;;;;;;;16.17;78.13;98853.75;5078809;28;20519;-81
2022/05/24 01:36:09;;;;;;;10.38;9.27;;;;;;;16.14;80.04;98853.72;5073454;28;20049;-80
2022/05/24 01:36:59;;;;;;;11.55;10.20;;;;;;;16.16;80.11;98868.19;5075491;28;20080;-80
2022/05/24 01:39:26;;;;;;;12.05;10.25;;;;;;;16.15;79.42;98867.41;5072536;28;20063;-80
2022/05/24 01:41:54;;;;;;;11.88;10.23;;;;;;;16.17;79.16;98869.81;5072591;28;20472;-80
2022/05/24 01:44:29;;;;;;;13.35;10.57;;;;;;;16.21;80.43;98857.41;5072475;28;20052;-80
2022/05/24 01:46:57;;;;;;;13.05;9.95;;;;;;;16.16;78.91;98852.13;5072878;28;20365;-80
2022/05/24 01:49:27;;;;;;;11.10;9.82;;;;;;;16.12;78.91;98856.13;5072508;28;20063;-80
2022/05/24 01:51:56;;;;;;;;;;;;;;;16.14;77.95;98860.16;5073040;28;20060;-80
2022/05/24 01:54:26;;;;;;;13.45;11.05;;;;;;;16.11;77.86;98855.34;5072445;28;19931;-80
2022/05/24 01:56:58;;;;;;;;;;;;;;;15.97;77.66;98866.47;5073313;28;20079;-80
2022/05/24 01:59:31;;;;;;;12.13;10.20;;;;;;;15.98;78.86;98870.88;5071983;28;19920;-80
2022/05/24 02:02:01;;;;;;;12.68;11.38;;;;;;;16.05;79.24;98862.50;5071768;28;20057;-80
2022/05/24 02:04:31;;;;;;;12.70;11.40;;;;;;;16.06;79.13;98872.53;5072056;28;20056;-80
2022/05/24 02:07:01;;;;;;;12.38;10.65;;;;;;;16.06;78.83;98864.09;5072220;28;20485;-80
2022/05/24 02:09:29;;;;;;;12.93;11.35;;;;;;;15.84;78.91;98863.16;5075686;28;20049;-80
2022/05/24 02:12:01;;;;;;;13.93;12.05;;;;;;;15.98;78.91;98856.81;5075875;28;20059;-80
2022/05/24 02:14:34;;;;;;;12.77;11.35;;;;;;;16.02;79.93;98868.91;5076029;28;20056;-80
2022/05/24 02:17:09;;;;;;;12.63;11.25;;;;;;;16.04;77.74;98872.13;5075352;28;20059;-80
2022/05/24 02:19:41;;;;;;;14.48;12.80;;;;;;;16.02;78.20;98869.72;5075564;28;20052;-80
2022/05/24 02:22:12;;;;;;;14.93;12.70;;;;;;;16.06;79.43;98868.94;5076008;28;20057;-80
2022/05/24 02:24:43;;;;;;;15.13;12.68;;;;;;;16.10;78.59;98866.94;5076039;28;20056;-81
2022/05/24 02:27:11;;;;;;;14.90;13.10;;;;;;;16.06;77.93;98869.72;5075952;28;20511;-80
2022/05/24 02:29:40;;;;;;;16.35;14.30;;;;;;;16.05;78.56;98858.91;5075864;28;20075;-80
2022/05/24 02:32:08;;;;;;;13.88;12.48;;;;;;;16.03;78.99;98854.47;5075767;28;20056;-81
2022/05/24 02:34:37;;;;;;;15.88;13.88;;;;;;;16.06;78.18;98852.06;5075528;28;20055;-80
2022/05/24 02:37:05;;;;;;;16.80;13.50;;;;;;;16.09;78.66;98852.09;5075633;28;20056;-80
2022/05/24 02:41:28;;;;;;;16.90;13.48;;;;;;;16.07;78.31;98862.94;5075889;28;20060;-80
2022/05/24 02:42:21;;;;;;;16.30;14.52;;;;;;;16.14;78.25;98862.97;5075445;28;20512;-80
2022/05/24 02:44:51;;;;;;;18.13;15.90;;;;;;;16.11;78.16;98858.13;5075291;28;20052;-81
2022/05/24 02:47:20;;;;;;;18.67;16.60;;;;;;;15.94;77.84;98861.66;5075686;28;20061;-80
2022/05/24 02:49:47;;;;;;;20.40;16.70;;;;;;;16.01;77.74;98851.25;5075301;28;20052;-80
2022/05/24 02:52:16;;;;;;;19.15;16.83;;;;;;;15.99;77.43;98848.03;5075567;28;20064;-80
2022/05/24 02:54:44;;;;;;;20.60;17.97;;;;;;;15.94;78.19;98861.66;5075205;28;20056;-80
2022/05/24 02:57:11;;;;;;;17.30;15.48;;;;;;;15.93;79.24;98848.78;5075172;28;20482;-81
2022/05/24 02:59:38;;;;;;;18.77;16.08;;;;;;;15.93;80.09;98849.59;5075994;28;20057;-80
2022/05/24 03:02:07;;;;;;;20.73;17.92;;;;;;;15.95;79.74;98846.38;5074895;28;20513;-80
2022/05/24 03:04:35;;;;;;;19.83;17.35;;;;;;;15.93;79.05;98843.97;5074700;28;20417;-80
2022/05/24 03:09:48;;;;;;;21.17;18.75;;;;;;;15.83;78.31;98841.88;5078306;28;20064;-80
2022/05/24 03:15:00;;;;;;;19.05;17.05;;;;;;;15.86;77.99;98860.78;5075517;28;20063;-81
2022/05/24 03:17:28;;;;;;;19.08;16.23;;;;;;;15.83;77.88;98856.75;5074524;28;20064;-80
2022/05/24 03:19:56;;;;;;;21.07;16.60;;;;;;;15.78;77.64;98836.66;5074083;28;20056;-80
2022/05/24 03:22:23;;;;;;;18.23;15.77;;;;;;;15.76;78.07;98844.66;5074755;28;20061;-81
2022/05/24 03:24:51;;;;;;;17.98;15.40;;;;;;;15.82;78.21;98845.91;5074926;28;20055;-80
2022/05/24 03:27:19;;;;;;;15.30;13.55;;;;;;;15.85;76.90;98849.94;5074433;28;20053;-80
2022/05/24 03:29:48;;;;;;;16.88;14.32;;;;;;;15.91;77.54;98839.94;5074199;28;20055;-80
2022/05/24 03:32:17;;;;;;;16.92;14.65;;;;;;;15.97;77.34;98846.81;5074296;28;20057;-80
2022/05/24 03:34:46;;;;;;;;;;;;;;;16.05;77.75;98856.09;5074994;28;20532;-80
2022/05/24 03:37:13;;;;;;;15.93;13.15;;;;;;;16.02;75.78;98852.88;5074773;28;19920;-80
2022/05/24 03:39:41;;;;;;;14.82;12.50;;;;;;;16.01;75.85;98840.00;5074402;28;20052;-80
2022/05/24 03:42:09;;;;;;;13.48;12.05;;;;;;;16.03;74.21;98853.66;5074542;28;20052;-80
2022/05/24 03:44:36;;;;;;;13.93;11.88;;;;;;;16.03;75.29;98848.06;5074576;28;20068;-80
2022/05/24 03:47:05;;;;;;;14.20;12.10;;;;;;;16.04;75.36;98846.84;5074233;28;20063;-80
2022/05/24 03:49:34;;;;;;;15.15;11.85;;;;;;;16.10;75.71;98853.72;5074178;28;20055;-80
2022/05/24 03:52:03;;;;;;;13.13;11.57;;;;;;;16.16;76.07;98851.34;5074591;28;20505;-80
2022/05/24 03:54:31;;;;;;;12.43;11.13;;;;;;;16.20;74.99;98852.16;5073762;28;20067;-80
2022/05/24 03:59:43;;;;;;;14.00;10.52;;;;;;;16.29;73.87;98863.84;5077656;28;20059;-81
2022/05/24 04:02:12;;;;;;;11.65;10.25;;;;;;;16.26;74.04;98855.44;5073677;28;20424;-80
2022/05/24 04:04:39;;;;;;;12.75;9.57;;;;;;;16.34;73.93;98857.06;5073633;28;20059;-80
2022/05/24 04:07:08;;;;;;;11.63;9.45;;;;;;;16.31;72.73;98863.47;5074121;28;20052;-80
2022/05/24 04:09:36;;;;;;;10.20;8.30;;;;;;;16.28;70.88;98867.06;5073850;28;20408;-80
2022/05/24 04:12:05;;;;;;;11.52;7.63;;;;;;;16.33;71.24;98866.69;5073959;28;20048;-80
2022/05/24 04:14:32;;;;;;;10.93;7.55;;;;;;;16.36;72.25;98868.72;5073301;28;20082;-80
2022/05/24 04:17:00;;;;;;;7.70;6.75;;;;;;;16.47;71.27;98865.97;5073245;28;20057;-80
2022/05/24 04:19:28;;;;;;;14.75;6.68;;;;;;;16.52;69.65;98869.19;5073186;28;20052;-80
2022/05/24 04:21:56;;;;;;;7.88;5.75;;;;;;;16.39;69.37;98882.78;5072990;28;20056;-80
2022/05/24 04:24:24;;;;;;;9.15;5.60;;;;;;;16.36;67.89;98882.78;5073234;28;20075;-80
2022/05/24 04:26:52;;;;;;;8.65;5.28;;;;;;;16.34;67.93;98874.72;5073531;28;20052;-80
2022/05/24 04:29:19;;;;;;;8.27;4.93;;;;;;;16.36;67.27;98882.78;5073152;28;20127;-81
2022/05/24 04:31:47;;;;;;;6.38;4.22;;;;;;;16.39;67.06;98884.78;5073149;28;20060;-80
2022/05/24 04:34:16;;;;;;;7.07;4.55;;;;;;;16.39;67.31;98887.59;5073101;28;20067;-80
2022/05/24 04:36:46;;;;;;;6.32;4.50;;;;;;;16.46;67.16;98898.88;5073531;28;20056;-80
2022/05/24 04:39:15;;;;;;;8.77;4.95;;;;;;;16.42;67.51;98903.66;5073076;28;20486;-80
2022/05/24 04:44:28;;;;;;;9.50;5.60;;;;;;;16.50;67.66;98905.31;5076924;28;20055;-80
2022/05/24 04:47:11;;;;;;;7.85;4.95;;;;;;;16.55;68.27;98902.16;5073154;28;20052;-80
2022/05/24 04:49:41;;;;;;;7.65;4.90;;;;;;;16.61;67.85;98900.59;5073037;28;20496;-80
2022/05/24 04:52:09;;;;;;;12.10;5.45;;;;;;;16.58;67.25;98909.00;5072928;28;20068;-80
2022/05/24 04:54:39;;;;;;;6.82;4.97;;;;;;;16.58;65.49;98909.00;5073243;28;20071;-80
2022/05/24 04:57:08;;;;;;;;;;;;;;;16.51;65.30;98912.56;5073658;28;20505;-81
2022/05/24 04:59:38;;;;;;;5.40;3.90;;;;;;;16.55;65.16;98919.03;5072868;28;19931;-80
2022/05/24 05:02:06;;;;;;;7.45;4.28;;;;;;;16.44;64.33;98913.34;5072450;28;20049;-81
2022/05/24 05:04:34;;;;;;;5.85;3.92;;;;;;;16.43;65.55;98916.53;5072648;28;20520;-81
2022/05/24 05:07:03;;;;;;;7.07;4.00;;;;;;;16.35;64.57;98920.50;5072735;28;20056;-80
2022/05/24 05:09:34;;;;;;;7.20;3.88;;;;;;;16.31;65.39;98916.84;5072693;28;20059;-81
2022/05/24 05:12:03;;;;;;;7.88;3.60;;;;;;;16.26;65.51;98934.09;5072617;28;20064;-81
2022/05/24 05:14:32;;;;;;;6.47;3.97;;;;;;;16.21;65.77;98933.25;5072602;28;20067;-80
2022/05/24 05:16:59;;;;;;;6.35;3.08;;;;;;;16.01;64.83;98941.13;5072424;28;20474;-81
2022/05/24 05:19:27;;;;;;;5.18;3.33;;;;;;;16.01;65.11;98951.56;5072625;28;20053;-81
2022/05/24 05:21:55;;;;;;;5.28;2.97;;;;;;;15.94;65.32;98959.94;5072890;28;20059;-81
2022/05/24 05:24:25;;;;;;;5.50;2.90;;;;;;;15.82;65.55;98963.81;5072963;28;20056;-81
2022/05/24 05:26:53;;;;;;;5.05;2.88;;;;;;;15.70;67.53;98962.06;5072633;28;20061;-80
2022/05/24 05:31:16;;;;;;;6.50;3.33;;;;;;;15.59;68.38;98976.00;5072861;28;20135;-81
2022/05/24 05:32:15;;;;;;;8.43;3.70;;;;;;;15.53;70.25;98982.34;5072051;28;20059;-80
2022/05/24 05:34:42;;;;;;;7.95;4.30;;;;;;;15.12;74.05;98993.47;5072758;28;20059;-80
2022/05/24 05:37:10;;;;;;;7.40;3.83;;;;;;;14.97;74.09;99006.50;5072856;28;20064;-81
2022/05/24 05:39:39;;;;;;;13.57;5.00;;;;;;;14.86;74.88;99011.97;5073638;28;20052;-80
2022/05/24 05:42:07;;;;;;;;;;;;;;;14.45;77.75;99020.16;5073611;28;20056;-80
2022/05/24 05:44:34;;;;;;;24.85;5.65;;;;;;;14.13;81.23;99026.03;5076410;28;19928;-80
2022/05/24 05:47:02;;;;;;;13.07;5.15;;;;;;;13.64;84.80;99026.75;5076716;28;20057;-80
2022/05/24 05:49:30;;;;;;;14.60;6.50;;;;;;;13.48;89.46;99029.66;5076352;28;20392;-80
2022/05/24 05:51:57;;;;;;;21.15;8.52;;;;;;;13.35;92.67;99036.56;5076515;28;20053;-80
2022/05/24 05:54:25;;;;;;;11.98;6.25;;;;;;;13.31;88.85;99036.50;5076799;28;20060;-81
2022/05/24 05:56:53;;;;;;;11.30;6.90;;;;;;;13.17;89.69;99052.94;5076512;28;20056;-81
2022/05/24 05:59:20;;;;;;;13.73;6.10;;;;;;;13.14;90.52;99040.50;5076346;28;20081;-81
2022/05/24 06:01:48;;;;;;;20.58;6.95;;;;;;;13.06;89.97;99054.69;5076665;28;20492;-81
2022/05/24 06:04:15;;;;;;;15.73;8.32;;;;;;;13.04;93.20;99055.06;5076587;28;20052;-80
2022/05/24 06:06:45;;;;;;;45.30;10.48;;;;;;;12.97;93.50;99058.50;5075910;28;20055;-80
2022/05/24 06:09:13;;;;;;;19.08;8.93;;;;;;;13.00;93.25;99051.38;5076288;28;20052;-80
2022/05/24 06:11:41;;;;;;;15.80;7.53;;;;;;;13.05;93.63;99067.06;5075924;28;20056;-81
2022/05/24 06:14:09;;;;;;;22.73;10.10;;;;;;;12.88;95.16;99066.28;5075484;28;20460;-81
2022/05/24 06:16:37;;;;;;;18.50;8.32;;;;;;;12.75;96.18;99068.41;5076037;28;20417;-81
2022/05/24 06:19:06;;;;;;;17.52;8.70;;;;;;;12.75;95.76;99065.59;5076180;28;20358;-81
2022/05/24 06:21:34;;;;;;;21.27;10.90;;;;;;;12.94;95.49;99070.41;5075617;28;20067;-81
2022/05/24 06:24:03;;;;;;;23.13;10.77;;;;;;;13.08;95.44;99083.09;5075699;28;20492;-81
2022/05/24 06:26:32;;;;;;;23.30;9.52;;;;;;;13.08;94.62;99085.88;5075065;28;20072;-81
2022/05/24 06:29:01;;;;;;;19.92;10.07;;;;;;;13.09;94.08;99084.72;5075886;28;20476;-81
2022/05/24 06:31:28;;;;;;;14.45;7.95;;;;;;;13.09;92.04;99090.31;5075800;28;20516;-81
2022/05/24 06:33:56;;;;;;;22.35;10.30;;;;;;;13.11;92.13;99111.13;5075892;28;20052;-82
2022/05/24 06:36:23;;;;;;;14.25;9.13;;;;;;;13.13;91.32;99105.19;5075484;28;20068;-81
2022/05/24 06:38:51;;;;;;;16.80;9.00;;;;;;;12.91;91.61;99117.84;5075417;28;20056;-81
2022/05/24 06:41:19;;;;;;;16.50;7.28;;;;;;;12.88;91.36;99126.97;5075563;28;20056;-80
2022/05/24 06:43:47;;;;;;;13.02;7.00;;;;;;;12.90;90.16;99133.00;5075088;28;20056;-81
2022/05/24 06:46:14;;;;;;;13.90;8.20;;;;;;;12.72;92.12;99144.53;5075695;28;20052;-81
2022/05/24 06:48:44;;;;;;;14.15;7.47;;;;;;;12.72;92.31;99146.53;5075259;28;20493;-80
2022/05/24 06:51:15;;;;;;;11.13;7.45;;;;;;;12.77;90.89;99143.47;5075671;28;20071;-81
2022/05/24 06:53:45;;;;;;;10.70;7.43;;;;;;;12.79;90.46;99146.72;5074971;28;20060;-81
2022/05/24 06:56:13;;;;;;;14.05;7.68;;;;;;;12.73;90.87;99150.97;5075730;28;20053;-81
2022/05/24 06:58:45;;;;;;;11.15;7.90;;;;;;;12.86;90.83;99152.47;5075474;28;20059;-81
2022/05/24 07:04:00;;;;;;;11.98;7.10;;;;;;;12.91;89.07;99154.97;5077933;28;20054;-81
2022/05/24 07:06:27;;;;;;;7.93;5.25;;;;;;;12.98;87.59;99152.38;5075341;28;20536;-81
2022/05/24 07:08:55;;;;;;;12.23;6.97;;;;;;;12.96;89.02;99165.09;5075876;28;20057;-81
2022/05/24 07:11:23;;;;;;;17.67;6.75;;;;;;;12.95;88.37;99160.66;5075072;28;20060;-81
2022/05/24 07:13:52;;;;;;;17.30;8.30;;;;;;;12.95;89.26;99119.53;5075428;28;20056;-81
2022/05/24 07:16:19;;;;;;;9.50;5.68;;;;;;;13.24;90.74;99091.44;5075267;28;20056;-81
2022/05/24 07:18:47;;;;;;;10.32;4.95;;;;;;;13.61;88.85;99103.03;5074513;28;20060;-81
2022/05/24 07:21:15;;;;;;;9.50;5.90;;;;;;;13.84;89.26;99131.09;5074210;28;20056;-81
2022/05/24 07:23:46;;;;;;;10.57;5.40;;;;;;;13.86;89.21;99167.09;5073956;28;20056;-81
2022/05/24 07:26:15;;;;;;;8.25;5.40;;;;;;;13.91;89.53;99153.59;5074140;28;20067;-81
2022/05/24 07:28:43;;;;;;;8.88;4.55;;;;;;;14.08;86.46;99132.75;5074181;28;20079;-81
2022/05/24 07:31:12;;;;;;;6.32;4.72;;;;;;;14.05;85.39;99158.69;5074892;28;20057;-81
2022/05/24 07:33:39;;;;;;;12.83;6.17;;;;;;;14.00;86.03;99161.78;5074296;28;20056;-81
2022/05/24 07:36:08;;;;;;;15.75;6.95;;;;;;;14.20;87.29;99152.19;5074226;28;20064;-81
2022/05/24 07:38:35;;;;;;;6.38;4.00;;;;;;;14.27;82.07;99153.50;5073934;28;20064;-81
2022/05/24 07:46:34;;;;;;;5.90;3.53;;;;;;;14.30;79.89;99164.78;5080383;28;20059;-81
2022/05/24 07:49:02;;;;;;;7.22;4.63;;;;;;;14.41;82.47;99171.38;5074373;28;20481;-81
2022/05/24 07:51:29;;;;;;;8.50;5.38;;;;;;;14.67;83.93;99177.44;5073020;28;20060;-80
2022/05/24 07:53:56;;;;;;;7.20;4.13;;;;;;;14.94;82.04;99195.13;5074015;28;20068;-81
2022/05/24 07:56:24;;;;;;;4.65;3.28;;;;;;;15.18;78.62;99213.53;5073873;28;20167;-81
2022/05/24 07:58:52;;;;;;;5.75;2.35;;;;;;;15.33;75.20;99197.72;5073682;28;20052;-81
2022/05/24 08:01:22;;;;;;;4.47;2.22;;;;;;;15.75;74.00;99193.97;5073547;28;20507;-80
2022/05/24 08:03:51;;;;;;;3.55;2.05;;;;;;;16.27;74.20;99213.84;5073042;28;20503;-80
2022/05/24 08:06:18;;;;;;;3.72;2.33;;;;;;;16.28;71.94;99212.66;5072780;28;20084;-80
2022/05/24 08:08:48;;;;;;;6.43;2.33;;;;;;;16.45;72.64;99206.44;5073348;28;20052;-80
2022/05/24 08:11:15;;;;;;;4.40;2.40;;;;;;;17.04;69.69;99198.97;5074088;28;20049;-80
2022/05/24 08:13:43;;;;;;;2.92;1.45;;;;;;;16.88;66.17;99189.19;5073309;28;20053;-80
2022/05/24 08:16:10;;;;;;;4.28;2.10;;;;;;;16.92;67.02;99190.81;5073383;28;20056;-80
2022/05/24 09:16:36;;;;;;;3.08;1.60;;;;;;;22.46;42.12;99250.72;4957596;28;20062;-80
2022/05/24 09:58:04;;;;;;;3.10;1.55;;;;;;;20.15;46.69;99301.81;5045393;28;20154;-80
2022/05/24 10:01:36;;;;;;;5.15;1.40;;;;;;;19.79;47.80;99296.25;5034791;28;20064;-81
2022/05/24 10:05:05;;;;;;;3.17;1.30;;;;;;;19.32;47.24;99311.56;5047627;28;20053;-80
2022/05/24 11:42:38;;;;;;;4.30;1.30;;;;;;;27.71;27.87;99322.94;5029365;28;20065;-79
2022/05/24 11:46:20;;;;;;;;;;;;;;;;;;;;;
2022/05/24 11:53:24;;;;;;;3.70;2.47;;;;;;;24.36;32.35;99352.84;4953788;29;20055;-81
2022/05/24 12:54:27;;;;;;;4.00;1.20;;;;;;;24.14;32.71;99391.47;5042229;28;20439;-80
2022/05/24 13:01:20;;;;;;;3.45;1.30;;;;;;;23.90;33.41;99389.44;5096921;28;20060;-81
2022/05/24 13:58:53;;;;;;;;;;;;;;;;;;;;;
2022/05/24 14:19:56;;;;;;;2.80;1.60;;;;;;;19.56;50.12;99473.78;5095952;28;20048;-79
2022/05/24 14:36:21;;;;;;;12.18;3.25;;;;;;;15.52;81.05;99542.03;5110126;27;20609;-56
2022/05/24 14:38:48;;;;;;;9.98;4.18;;;;;;;14.45;89.57;99546.88;5110402;28;20404;-56
2022/05/24 14:41:21;;;;;;;5.70;3.33;;;;;;;13.74;87.93;99557.06;5110312;28;20411;-56
2022/05/24 14:43:51;;;;;;;8.85;5.68;;;;;;;13.34;86.74;99544.78;5110285;28;20056;-57
2022/05/24 14:46:20;;;;;;;5.05;3.40;;;;;;;13.43;84.92;99543.81;5109894;28;20048;-55
2022/05/24 14:48:48;;;;;;;5.97;3.17;;;;;;;13.33;83.43;99548.75;5110153;28;20047;-53
2022/05/24 14:51:19;;;;;;;3.67;3.15;;;;;;;13.27;82.70;99552.09;5109796;28;20052;-53
2022/05/24 14:53:48;;;;;;;4.65;3.63;;;;;;;13.66;84.42;99552.44;5109854;28;20048;-55
2022/05/24 14:56:15;;;;;;;5.80;4.10;;;;;;;13.96;85.58;99553.66;5109675;28;20068;-53
2022/05/24 14:58:42;;;;;;;5.68;4.25;;;;;;;14.23;84.50;99550.31;5109890;28;20060;-53
2022/05/24 15:01:09;;;;;;;8.00;5.75;;;;;;;14.76;85.76;99550.81;5109826;28;20052;-53
2022/05/24 15:03:37;;;;;;;7.38;5.97;;;;;;;15.51;89.08;99551.63;5109728;28;20055;-53
2022/05/24 15:06:04;;;;;;;4.28;3.88;;;;;;;16.15;89.29;99552.06;5109701;28;20141;-56
2022/05/24 15:16:49;;;;;;;5.40;3.80;;;;;;;17.95;84.40;99541.28;5115502;28;20070;-53
2022/05/24 15:19:17;;;;;;;4.32;2.55;;;;;;;18.13;76.94;99539.44;5108691;28;20052;-53
2022/05/24 15:21:48;;;;;;;4.18;3.25;;;;;;;18.46;79.61;99546.19;5109288;28;20404;-53
2022/05/24 15:24:21;;;;;;;3.53;2.50;;;;;;;18.74;76.33;99541.94;5109114;28;20048;-54
2022/05/24 15:26:55;;;;;;;4.43;2.33;;;;;;;19.03;75.67;99532.47;5109365;28;20054;-53
2022/05/24 15:29:23;;;;;;;3.65;2.45;;;;;;;19.27;76.19;99544.28;5109059;28;20059;-54
2022/05/24 15:31:51;;;;;;;3.13;2.00;;;;;;;19.60;75.38;99539.59;5108939;28;20052;-53
2022/05/24 15:34:19;;;;;;;2.75;1.70;;;;;;;19.71;67.21;99546.09;5108846;28;20388;-53
2022/05/24 15:36:46;;;;;;;2.90;1.90;;;;;;;19.55;64.66;99545.59;5108716;28;20047;-53
2022/05/24 15:39:14;;;;;;;2.90;1.70;;;;;;;19.56;68.55;99550.88;5108792;28;20062;-54
2022/05/24 15:41:41;;;;;;;2.65;1.50;;;;;;;19.62;59.92;99548.47;5108621;28;20052;-53
2022/05/24 15:44:11;;;;;;;3.63;2.25;;;;;;;19.56;66.19;99550.06;5108535;28;20055;-54
2022/05/24 15:46:38;;;;;;;;;;;;;;;19.53;65.50;99548.00;5101603;28;20048;-51
2022/05/24 15:49:06;;;;;;;3.78;1.92;;;;;;;19.61;62.92;99558.13;5095006;28;20406;-56
2022/05/24 15:51:33;;;;;;;2.15;1.70;;;;;;;19.67;63.92;99556.53;5095022;28;20059;-53
2022/05/24 15:54:00;;;;;;;2.83;1.40;;;;;;;19.61;58.88;99558.97;5094950;28;20048;-53
2022/05/24 15:56:28;;;;;;;2.67;1.73;;;;;;;19.37;57.39;99560.47;5094832;28;20063;-55
2022/05/24 15:58:55;;;;;;;3.30;1.80;;;;;;;19.31;61.21;99567.69;5094777;28;20059;-56
2022/05/24 16:01:24;;;;;;;3.28;1.67;;;;;;;19.29;63.17;99575.75;5095108;28;20044;-56
2022/05/24 16:03:51;;;;;;;2.60;1.20;;;;;;;19.08;61.69;99578.47;5094605;28;20044;-55
2022/05/24 16:11:51;;;;;;;2.88;1.02;;;;;;;18.38;56.88;99600.91;5100918;28;20063;-54
2022/05/24 16:14:25;;;;;;;1.80;0.90;;;;;;;18.23;56.72;99608.41;5094317;28;20059;-57
2022/05/24 16:16:56;;;;;;;1.67;1.10;;;;;;;17.83;52.81;99624.88;5094659;28;20081;-57
2022/05/24 16:19:23;;;;;;;3.83;1.33;;;;;;;17.61;55.84;99617.34;5094534;28;20055;-53
2022/05/24 16:21:51;;;;;;;3.45;1.23;;;;;;;17.38;58.85;99621.06;5094536;28;20044;-55
2022/05/24 16:24:18;;;;;;;4.30;1.85;;;;;;;17.20;57.54;99618.00;5094519;28;20404;-53
2022/05/24 16:26:46;;;;;;;4.40;1.35;;;;;;;17.11;60.90;99611.03;5094875;28;20360;-54
2022/05/24 16:29:13;;;;;;;3.58;1.40;;;;;;;17.00;63.23;99606.06;5094130;28;20052;-53
2022/05/24 16:31:41;;;;;;;2.15;1.42;;;;;;;16.99;63.44;99610.06;5094331;28;20064;-53
2022/05/24 16:34:10;;;;;;;5.55;2.03;;;;;;;17.09;64.43;99594.50;5093653;28;20066;-53
2022/05/24 16:36:37;;;;;;;2.70;1.60;;;;;;;17.15;64.31;99595.00;5094630;28;20472;-55
2022/05/24 16:39:06;;;;;;;2.45;1.50;;;;;;;17.15;64.29;99598.63;5093961;28;20056;-56
2022/05/24 16:41:35;;;;;;;2.88;1.70;;;;;;;17.32;64.20;99608.50;5094189;28;20389;-53
2022/05/24 16:44:03;;;;;;;3.00;1.57;;;;;;;17.42;67.53;99596.59;5093797;28;20048;-53
2022/05/24 16:46:32;;;;;;;2.78;1.40;;;;;;;17.48;64.69;99594.25;5094022;28;20052;-54
2022/05/24 16:49:00;;;;;;;2.70;1.35;;;;;;;17.65;66.08;99599.28;5093569;28;20055;-52
2022/05/24 16:51:34;;;;;;;2.28;1.10;;;;;;;17.81;64.09;99601.91;5094163;28;20480;-53
2022/05/24 16:58:42;;;;;;;3.00;1.58;;;;;;;17.90;62.01;99604.44;5093702;28;20059;-52
2022/05/24 16:59:35;;;;;;;2.78;1.35;;;;;;;17.88;58.71;99608.84;5098011;28;20473;-53
2022/05/24 17:02:03;;;;;;;2.03;1.10;;;;;;;17.92;60.40;99601.25;5093703;28;20130;-53
2022/05/24 17:04:31;;;;;;;2.15;1.30;;;;;;;18.00;62.01;99608.56;5093911;28;20048;-52
2022/05/24 17:07:00;;;;;;;1.85;1.10;;;;;;;18.07;61.55;99608.63;5093488;28;20048;-53
2022/05/24 17:09:27;;;;;;;2.97;1.05;;;;;;;18.07;59.10;99613.47;5093660;28;20052;-52
2022/05/24 17:11:54;;;;;;;3.40;1.20;;;;;;;17.89;60.60;99618.91;5093800;28;20059;-55
2022/05/24 17:14:21;;;;;;;2.42;1.50;;;;;;;17.88;61.07;99620.91;5093427;28;20043;-53
2022/05/24 17:16:49;;;;;;;2.65;1.30;;;;;;;17.78;60.70;99619.56;5093283;28;20044;-55
2022/05/24 17:19:16;;;;;;;6.25;1.48;;;;;;;17.64;62.74;99620.22;5093255;28;20055;-53
2022/05/24 17:21:44;;;;;;;3.42;1.60;;;;;;;17.72;62.97;99621.09;5093279;28;20055;-52
2022/05/24 17:24:12;;;;;;;2.95;1.40;;;;;;;17.54;63.11;99634.16;5092927;28;20389;-53
2022/05/24 17:26:39;;;;;;;2.20;1.30;;;;;;;17.40;61.98;99632.75;5093616;28;20158;-52
2022/05/24 17:29:07;;;;;;;2.78;1.38;;;;;;;17.38;61.99;99628.69;5092889;28;20532;-52
2022/05/24 17:31:34;;;;;;;4.78;1.67;;;;;;;17.31;63.91;99626.59;5093534;28;20056;-54
2022/05/24 17:34:03;;;;;;;3.00;1.50;;;;;;;17.15;64.19;99638.03;5092764;28;20070;-53
2022/05/24 17:36:33;;;;;;;2.83;1.30;;;;;;;16.97;63.33;99628.53;5093347;28;20404;-52
2022/05/24 17:39:00;;;;;;;;;;;;;;;16.98;64.47;99636.56;5093681;28;20388;-55
2022/05/24 17:41:29;;;;;;;2.72;1.48;;;;;;;16.88;63.53;99640.03;5092738;28;20292;-53
2022/05/24 17:43:56;;;;;;;2.05;1.30;;;;;;;17.01;64.52;99635.81;5092810;28;20048;-53
2022/05/24 17:46:24;;;;;;;2.53;1.38;;;;;;;16.88;64.71;99637.22;5092936;28;20047;-52
2022/05/24 17:48:52;;;;;;;3.75;1.48;;;;;;;16.95;62.70;99634.53;5093104;28;20059;-55
2022/05/24 17:51:20;;;;;;;2.85;1.25;;;;;;;16.90;63.58;99637.66;5092652;28;20048;-55
2022/05/24 17:53:47;;;;;;;1.90;1.00;;;;;;;16.71;61.01;99643.34;5093056;28;20056;-52
2022/05/24 17:56:15;;;;;;;1.73;1.05;;;;;;;16.80;61.41;99644.75;5092642;28;20122;-52
2022/05/24 17:58:44;;;;;;;7.97;1.50;;;;;;;16.70;61.17;99644.53;5092968;28;20052;-55
2022/05/24 18:01:12;;;;;;;2.05;1.20;;;;;;;16.63;60.98;99646.03;5092738;28;20055;-52
2022/05/24 18:03:39;;;;;;;3.80;1.55;;;;;;;16.56;60.91;99645.91;5092609;28;20044;-54
2022/05/24 18:06:07;;;;;;;3.00;1.50;;;;;;;16.55;63.72;99651.91;5092699;28;20048;-52
2022/05/24 18:08:34;;;;;;;2.55;1.00;;;;;;;16.42;63.58;99648.44;5092649;28;20519;-52